Airfield :
LOGIN :

Register | Disclaimer

   EN    FR    IT 

 










Legend :    VFR   Marginal VFR   IFR   Intensive IFR   Very Intensive IFR
Visi :
Ceiling :
>= 8 km
>= 3000ft
5 to 8 km
1000 to 3000 ft
1500m to 5 km
500 to 1000 ft
800 to 1500m
200 to 500 ft
< 800m
< 200 ft
Symbols :   Thunderstorms  Fog  Heavy snow  Heavy precipitations  Wind > 20 kt
SIGMETs :     Misc.  Thunderstorms  Icing  Turbulence  Mountain Waves  Volcanic Ashes






- Airport Elevation : -13 ft
- IATA code : LEY


EHLE - Lelystad

CURRENT METAR :
  • 091825Z AUTO 19004KT 3000 BR NCD M01/M01 Q1006 BECMG 1500 BKN003

EXPIRED METARs :
  • 091755Z AUTO 18004KT 2700 BR BKN008 M01/M02 Q1006 BECMG 1500 BKN003
  • 091725Z AUTO 17003KT 2900 BR NCD M01/M02 Q1006 BECMG 1500 BKN003
  • 091655Z AUTO 17003KT 2800 BR NCD M01/M02 Q1006 BECMG 1500 BKN003
  • 091625Z AUTO 19003KT 4000 BR NCD M01/M01 Q1006 BECMG 2500
  • 091555Z AUTO 17006KT 140V200 4600 BR OVC004 M00/M00 Q1006 BECMG 2500

TAF TAF EHLE
Valid from the 09 at 18:00 until the 11 at 00:00 UTC


091711Z 0918/1024 18005KT 1800 BR BKN004
BECMG 0918/0921 0600 FG BKN001
PROB30
TEMPO 0919/1010 0300 FZFG VV000
BECMG 1012/1014 21010KT 2500 BR BKN003
PROB40 1014/1018 6000 NSW BKN006
BECMG 1018/1021 1200 BCFG BKN002



MET'MAP, your aeronautical weather chart ! - Copyright ORBIFLY December 2007 - Disclaimer

ORBIFLY MET'MAP TEAM :

Programming & Development : Alexandra Zaïnal
Original concept : Baudouin d'Aumeries
Technical & hardware support : Manuel Goepfert
Assistance : Marc-Olivier Méhu




SOURCES & CREDITS :

   NOAA